sensor_id;sensor_type;location;lat;lon;timestamp;P1;durP1;ratioP1;P2;durP2;ratioP2
4011;SDS011;2020;48.682;9.024;2023-05-07T00:01:13;1.90;;;1.80;;
4011;SDS011;2020;48.682;9.024;2023-05-07T00:03:38;2.10;;;2.00;;
4011;SDS011;2020;48.682;9.024;2023-05-07T00:06:04;2.60;;;2.20;;
4011;SDS011;2020;48.682;9.024;2023-05-07T00:08:29;1.20;;;1.20;;
4011;SDS011;2020;48.682;9.024;2023-05-07T00:10:54;1.67;;;1.67;;
4011;SDS011;2020;48.682;9.024;2023-05-07T00:13:20;3.53;;;2.83;;
4011;SDS011;2020;48.682;9.024;2023-05-07T00:15:45;2.10;;;2.00;;
4011;SDS011;2020;48.682;9.024;2023-05-07T00:18:10;1.37;;;1.37;;
4011;SDS011;2020;48.682;9.024;2023-05-07T00:20:36;2.47;;;2.37;;
4011;SDS011;2020;48.682;9.024;2023-05-07T00:23:01;1.80;;;1.70;;
4011;SDS011;2020;48.682;9.024;2023-05-07T00:25:26;2.07;;;1.97;;
4011;SDS011;2020;48.682;9.024;2023-05-07T00:27:51;1.70;;;1.70;;
4011;SDS011;2020;48.682;9.024;2023-05-07T00:30:17;1.83;;;1.73;;
4011;SDS011;2020;48.682;9.024;2023-05-07T00:32:42;1.67;;;1.67;;
4011;SDS011;2020;48.682;9.024;2023-05-07T00:35:10;2.97;;;1.80;;
4011;SDS011;2020;48.682;9.024;2023-05-07T00:37:35;2.17;;;1.90;;
4011;SDS011;2020;48.682;9.024;2023-05-07T00:40:01;1.73;;;1.63;;
4011;SDS011;2020;48.682;9.024;2023-05-07T00:42:29;2.33;;;1.97;;
4011;SDS011;2020;48.682;9.024;2023-05-07T00:44:54;2.00;;;1.90;;
4011;SDS011;2020;48.682;9.024;2023-05-07T00:47:20;1.90;;;1.80;;
4011;SDS011;2020;48.682;9.024;2023-05-07T00:49:45;1.80;;;1.70;;
4011;SDS011;2020;48.682;9.024;2023-05-07T00:52:11;1.47;;;1.37;;
4011;SDS011;2020;48.682;9.024;2023-05-07T00:54:40;2.17;;;2.07;;
4011;SDS011;2020;48.682;9.024;2023-05-07T00:57:05;2.23;;;2.07;;
4011;SDS011;2020;48.682;9.024;2023-05-07T00:59:31;1.53;;;1.47;;
4011;SDS011;2020;48.682;9.024;2023-05-07T01:01:57;3.50;;;2.10;;
4011;SDS011;2020;48.682;9.024;2023-05-07T01:04:23;2.40;;;2.20;;
4011;SDS011;2020;48.682;9.024;2023-05-07T01:06:49;1.87;;;1.87;;
4011;SDS011;2020;48.682;9.024;2023-05-07T01:09:15;1.73;;;1.73;;
4011;SDS011;2020;48.682;9.024;2023-05-07T01:11:40;2.03;;;1.93;;
4011;SDS011;2020;48.682;9.024;2023-05-07T01:14:06;2.30;;;2.20;;
4011;SDS011;2020;48.682;9.024;2023-05-07T01:16:33;1.67;;;1.57;;
4011;SDS011;2020;48.682;9.024;2023-05-07T01:18:58;1.83;;;1.83;;
4011;SDS011;2020;48.682;9.024;2023-05-07T01:21:25;2.27;;;2.17;;
4011;SDS011;2020;48.682;9.024;2023-05-07T01:23:51;1.93;;;1.93;;
4011;SDS011;2020;48.682;9.024;2023-05-07T01:26:18;4.10;;;2.07;;
4011;SDS011;2020;48.682;9.024;2023-05-07T01:28:44;1.63;;;1.63;;
4011;SDS011;2020;48.682;9.024;2023-05-07T01:31:10;1.93;;;1.83;;
4011;SDS011;2020;48.682;9.024;2023-05-07T01:33:37;4.83;;;1.83;;
4011;SDS011;2020;48.682;9.024;2023-05-07T01:36:03;1.80;;;1.70;;
4011;SDS011;2020;48.682;9.024;2023-05-07T01:38:31;1.83;;;1.80;;
4011;SDS011;2020;48.682;9.024;2023-05-07T01:40:57;2.50;;;2.40;;
4011;SDS011;2020;48.682;9.024;2023-05-07T01:43:23;2.27;;;2.17;;
4011;SDS011;2020;48.682;9.024;2023-05-07T01:45:48;5.70;;;1.80;;
4011;SDS011;2020;48.682;9.024;2023-05-07T01:48:14;1.90;;;1.67;;
4011;SDS011;2020;48.682;9.024;2023-05-07T01:50:40;2.13;;;2.03;;
4011;SDS011;2020;48.682;9.024;2023-05-07T01:53:07;10.23;;;2.00;;
4011;SDS011;2020;48.682;9.024;2023-05-07T01:55:33;2.57;;;2.47;;
4011;SDS011;2020;48.682;9.024;2023-05-07T01:57:58;2.10;;;2.00;;
4011;SDS011;2020;48.682;9.024;2023-05-07T02:00:23;1.77;;;1.77;;
4011;SDS011;2020;48.682;9.024;2023-05-07T02:02:49;2.10;;;1.97;;
4011;SDS011;2020;48.682;9.024;2023-05-07T02:05:14;1.83;;;1.73;;
4011;SDS011;2020;48.682;9.024;2023-05-07T02:07:40;2.20;;;2.10;;
4011;SDS011;2020;48.682;9.024;2023-05-07T02:10:05;1.87;;;1.77;;
4011;SDS011;2020;48.682;9.024;2023-05-07T02:12:31;2.17;;;2.07;;
4011;SDS011;2020;48.682;9.024;2023-05-07T02:14:56;2.43;;;1.90;;
4011;SDS011;2020;48.682;9.024;2023-05-07T02:17:21;3.47;;;2.50;;
4011;SDS011;2020;48.682;9.024;2023-05-07T02:19:47;2.30;;;2.20;;
4011;SDS011;2020;48.682;9.024;2023-05-07T02:22:12;2.40;;;2.30;;
4011;SDS011;2020;48.682;9.024;2023-05-07T02:24:37;1.90;;;1.90;;
4011;SDS011;2020;48.682;9.024;2023-05-07T02:27:02;2.17;;;2.17;;
4011;SDS011;2020;48.682;9.024;2023-05-07T02:29:28;3.10;;;2.17;;
4011;SDS011;2020;48.682;9.024;2023-05-07T02:31:53;1.73;;;1.73;;
4011;SDS011;2020;48.682;9.024;2023-05-07T02:34:19;1.90;;;1.80;;
4011;SDS011;2020;48.682;9.024;2023-05-07T02:36:44;2.50;;;2.40;;
4011;SDS011;2020;48.682;9.024;2023-05-07T02:39:10;2.43;;;2.33;;
4011;SDS011;2020;48.682;9.024;2023-05-07T02:41:37;1.87;;;1.77;;
4011;SDS011;2020;48.682;9.024;2023-05-07T02:44:02;2.07;;;1.97;;
4011;SDS011;2020;48.682;9.024;2023-05-07T02:46:27;2.07;;;2.00;;
4011;SDS011;2020;48.682;9.024;2023-05-07T02:48:53;1.63;;;1.53;;
4011;SDS011;2020;48.682;9.024;2023-05-07T02:51:21;2.77;;;2.37;;
4011;SDS011;2020;48.682;9.024;2023-05-07T02:53:47;2.17;;;1.97;;
4011;SDS011;2020;48.682;9.024;2023-05-07T02:56:13;2.20;;;2.17;;
4011;SDS011;2020;48.682;9.024;2023-05-07T02:58:38;2.37;;;1.57;;
4011;SDS011;2020;48.682;9.024;2023-05-07T03:01:09;2.13;;;1.87;;
4011;SDS011;2020;48.682;9.024;2023-05-07T03:03:35;1.80;;;1.70;;
4011;SDS011;2020;48.682;9.024;2023-05-07T03:06:01;2.50;;;1.97;;
4011;SDS011;2020;48.682;9.024;2023-05-07T03:08:26;2.43;;;2.33;;
4011;SDS011;2020;48.682;9.024;2023-05-07T03:10:51;2.53;;;2.43;;
4011;SDS011;2020;48.682;9.024;2023-05-07T03:13:17;2.57;;;2.47;;
4011;SDS011;2020;48.682;9.024;2023-05-07T03:15:42;1.70;;;1.70;;
4011;SDS011;2020;48.682;9.024;2023-05-07T03:18:08;1.77;;;1.67;;
4011;SDS011;2020;48.682;9.024;2023-05-07T03:20:33;2.90;;;2.70;;
4011;SDS011;2020;48.682;9.024;2023-05-07T03:22:58;2.77;;;2.67;;
4011;SDS011;2020;48.682;9.024;2023-05-07T03:25:24;2.50;;;2.40;;
4011;SDS011;2020;48.682;9.024;2023-05-07T03:27:49;2.30;;;2.20;;
4011;SDS011;2020;48.682;9.024;2023-05-07T03:30:15;2.77;;;2.57;;
4011;SDS011;2020;48.682;9.024;2023-05-07T03:32:40;2.47;;;2.37;;
4011;SDS011;2020;48.682;9.024;2023-05-07T03:35:05;2.60;;;2.50;;
4011;SDS011;2020;48.682;9.024;2023-05-07T03:37:31;2.60;;;2.40;;
4011;SDS011;2020;48.682;9.024;2023-05-07T03:39:56;3.50;;;3.40;;
4011;SDS011;2020;48.682;9.024;2023-05-07T03:42:22;2.43;;;2.33;;
4011;SDS011;2020;48.682;9.024;2023-05-07T03:44:47;2.37;;;2.17;;
4011;SDS011;2020;48.682;9.024;2023-05-07T03:47:12;2.30;;;2.20;;
4011;SDS011;2020;48.682;9.024;2023-05-07T03:49:38;2.00;;;1.90;;
4011;SDS011;2020;48.682;9.024;2023-05-07T03:52:04;2.90;;;2.70;;
4011;SDS011;2020;48.682;9.024;2023-05-07T03:54:29;2.30;;;2.10;;
4011;SDS011;2020;48.682;9.024;2023-05-07T03:56:55;2.33;;;2.30;;
4011;SDS011;2020;48.682;9.024;2023-05-07T03:59:20;2.30;;;2.20;;
4011;SDS011;2020;48.682;9.024;2023-05-07T04:01:46;2.03;;;1.93;;
4011;SDS011;2020;48.682;9.024;2023-05-07T04:04:12;2.30;;;2.20;;
4011;SDS011;2020;48.682;9.024;2023-05-07T04:06:37;2.70;;;2.60;;
4011;SDS011;2020;48.682;9.024;2023-05-07T04:09:02;2.30;;;2.20;;
4011;SDS011;2020;48.682;9.024;2023-05-07T04:11:28;2.60;;;2.50;;
4011;SDS011;2020;48.682;9.024;2023-05-07T04:13:53;2.23;;;2.17;;
4011;SDS011;2020;48.682;9.024;2023-05-07T04:16:18;2.20;;;2.10;;
4011;SDS011;2020;48.682;9.024;2023-05-07T04:18:44;2.00;;;2.00;;
4011;SDS011;2020;48.682;9.024;2023-05-07T04:21:16;2.83;;;2.40;;
4011;SDS011;2020;48.682;9.024;2023-05-07T04:23:42;2.03;;;2.03;;
4011;SDS011;2020;48.682;9.024;2023-05-07T04:26:07;3.07;;;2.87;;
4011;SDS011;2020;48.682;9.024;2023-05-07T04:28:32;2.00;;;2.00;;
4011;SDS011;2020;48.682;9.024;2023-05-07T04:30:59;2.20;;;2.10;;
4011;SDS011;2020;48.682;9.024;2023-05-07T04:33:24;2.30;;;2.23;;
4011;SDS011;2020;48.682;9.024;2023-05-07T04:35:49;2.20;;;2.10;;
4011;SDS011;2020;48.682;9.024;2023-05-07T04:38:15;2.10;;;2.10;;
4011;SDS011;2020;48.682;9.024;2023-05-07T04:40:41;2.23;;;2.13;;
4011;SDS011;2020;48.682;9.024;2023-05-07T04:43:07;1.70;;;1.70;;
4011;SDS011;2020;48.682;9.024;2023-05-07T04:45:34;2.20;;;2.10;;
4011;SDS011;2020;48.682;9.024;2023-05-07T04:47:59;1.97;;;1.87;;
4011;SDS011;2020;48.682;9.024;2023-05-07T04:50:24;3.23;;;3.13;;
4011;SDS011;2020;48.682;9.024;2023-05-07T04:52:50;4.73;;;3.43;;
4011;SDS011;2020;48.682;9.024;2023-05-07T04:55:16;2.30;;;2.20;;
4011;SDS011;2020;48.682;9.024;2023-05-07T04:57:41;2.27;;;2.07;;
4011;SDS011;2020;48.682;9.024;2023-05-07T05:00:06;2.27;;;2.17;;
4011;SDS011;2020;48.682;9.024;2023-05-07T05:02:33;2.50;;;2.40;;
4011;SDS011;2020;48.682;9.024;2023-05-07T05:04:59;2.70;;;2.60;;
4011;SDS011;2020;48.682;9.024;2023-05-07T05:07:26;2.70;;;2.50;;
4011;SDS011;2020;48.682;9.024;2023-05-07T05:09:51;3.20;;;3.00;;
4011;SDS011;2020;48.682;9.024;2023-05-07T05:12:16;8.20;;;3.87;;
4011;SDS011;2020;48.682;9.024;2023-05-07T05:14:42;3.87;;;3.57;;
4011;SDS011;2020;48.682;9.024;2023-05-07T05:17:07;3.77;;;3.37;;
4011;SDS011;2020;48.682;9.024;2023-05-07T05:19:33;2.30;;;2.10;;
4011;SDS011;2020;48.682;9.024;2023-05-07T05:21:58;2.27;;;2.27;;
4011;SDS011;2020;48.682;9.024;2023-05-07T05:24:25;3.03;;;2.47;;
4011;SDS011;2020;48.682;9.024;2023-05-07T05:26:52;2.90;;;2.80;;
4011;SDS011;2020;48.682;9.024;2023-05-07T05:29:18;3.00;;;2.90;;
4011;SDS011;2020;48.682;9.024;2023-05-07T05:31:43;4.40;;;3.67;;
4011;SDS011;2020;48.682;9.024;2023-05-07T05:34:08;3.50;;;3.30;;
4011;SDS011;2020;48.682;9.024;2023-05-07T05:36:34;3.50;;;3.40;;
4011;SDS011;2020;48.682;9.024;2023-05-07T05:38:59;2.50;;;2.40;;
4011;SDS011;2020;48.682;9.024;2023-05-07T05:41:24;2.90;;;2.80;;
4011;SDS011;2020;48.682;9.024;2023-05-07T05:43:50;3.20;;;3.10;;
4011;SDS011;2020;48.682;9.024;2023-05-07T05:46:15;6.83;;;3.40;;
4011;SDS011;2020;48.682;9.024;2023-05-07T05:48:40;3.87;;;3.67;;
4011;SDS011;2020;48.682;9.024;2023-05-07T05:51:05;3.40;;;3.20;;
4011;SDS011;2020;48.682;9.024;2023-05-07T05:53:31;3.60;;;3.30;;
4011;SDS011;2020;48.682;9.024;2023-05-07T05:55:56;3.60;;;3.40;;
4011;SDS011;2020;48.682;9.024;2023-05-07T05:58:21;4.63;;;4.40;;
4011;SDS011;2020;48.682;9.024;2023-05-07T06:00:46;4.80;;;4.50;;
4011;SDS011;2020;48.682;9.024;2023-05-07T06:03:13;7.13;;;4.03;;
4011;SDS011;2020;48.682;9.024;2023-05-07T06:05:38;3.53;;;3.33;;
4011;SDS011;2020;48.682;9.024;2023-05-07T06:08:04;3.30;;;3.10;;
4011;SDS011;2020;48.682;9.024;2023-05-07T06:10:29;3.47;;;3.30;;
4011;SDS011;2020;48.682;9.024;2023-05-07T06:12:55;3.40;;;3.10;;
4011;SDS011;2020;48.682;9.024;2023-05-07T06:15:20;2.70;;;2.50;;
4011;SDS011;2020;48.682;9.024;2023-05-07T06:17:46;2.50;;;2.40;;
4011;SDS011;2020;48.682;9.024;2023-05-07T06:20:11;3.03;;;2.83;;
4011;SDS011;2020;48.682;9.024;2023-05-07T06:22:36;4.10;;;2.53;;
4011;SDS011;2020;48.682;9.024;2023-05-07T06:25:01;3.07;;;2.93;;
4011;SDS011;2020;48.682;9.024;2023-05-07T06:27:27;2.57;;;2.47;;
4011;SDS011;2020;48.682;9.024;2023-05-07T06:29:53;2.10;;;2.00;;
4011;SDS011;2020;48.682;9.024;2023-05-07T06:32:18;1.90;;;1.90;;
4011;SDS011;2020;48.682;9.024;2023-05-07T06:34:43;2.27;;;2.17;;
4011;SDS011;2020;48.682;9.024;2023-05-07T06:37:09;2.00;;;1.90;;
4011;SDS011;2020;48.682;9.024;2023-05-07T06:39:34;1.80;;;1.80;;
4011;SDS011;2020;48.682;9.024;2023-05-07T06:42:00;2.50;;;2.40;;
4011;SDS011;2020;48.682;9.024;2023-05-07T06:44:25;2.40;;;2.30;;
4011;SDS011;2020;48.682;9.024;2023-05-07T06:46:51;2.70;;;2.60;;
4011;SDS011;2020;48.682;9.024;2023-05-07T06:49:16;2.60;;;2.40;;
4011;SDS011;2020;48.682;9.024;2023-05-07T06:51:41;3.40;;;3.23;;
4011;SDS011;2020;48.682;9.024;2023-05-07T06:54:07;2.40;;;2.20;;
4011;SDS011;2020;48.682;9.024;2023-05-07T06:56:32;2.80;;;2.60;;
4011;SDS011;2020;48.682;9.024;2023-05-07T06:58:59;3.07;;;2.97;;
4011;SDS011;2020;48.682;9.024;2023-05-07T07:01:25;2.50;;;2.40;;
4011;SDS011;2020;48.682;9.024;2023-05-07T07:03:50;2.93;;;2.73;;
4011;SDS011;2020;48.682;9.024;2023-05-07T07:06:16;2.67;;;2.60;;
4011;SDS011;2020;48.682;9.024;2023-05-07T07:08:41;2.63;;;2.50;;
4011;SDS011;2020;48.682;9.024;2023-05-07T07:11:07;2.53;;;2.43;;
4011;SDS011;2020;48.682;9.024;2023-05-07T07:13:33;2.87;;;2.77;;
4011;SDS011;2020;48.682;9.024;2023-05-07T07:15:59;4.30;;;2.50;;
4011;SDS011;2020;48.682;9.024;2023-05-07T07:18:25;2.80;;;2.70;;
4011;SDS011;2020;48.682;9.024;2023-05-07T07:20:50;2.37;;;2.07;;
4011;SDS011;2020;48.682;9.024;2023-05-07T07:23:15;2.40;;;2.30;;
4011;SDS011;2020;48.682;9.024;2023-05-07T07:25:41;2.60;;;2.50;;
4011;SDS011;2020;48.682;9.024;2023-05-07T07:28:06;3.00;;;2.90;;
4011;SDS011;2020;48.682;9.024;2023-05-07T07:30:31;2.70;;;2.60;;
4011;SDS011;2020;48.682;9.024;2023-05-07T07:32:57;2.73;;;2.63;;
4011;SDS011;2020;48.682;9.024;2023-05-07T07:35:27;2.63;;;2.43;;
4011;SDS011;2020;48.682;9.024;2023-05-07T07:37:55;2.43;;;2.37;;
4011;SDS011;2020;48.682;9.024;2023-05-07T07:40:20;2.30;;;2.30;;
4011;SDS011;2020;48.682;9.024;2023-05-07T07:42:46;2.50;;;2.40;;
4011;SDS011;2020;48.682;9.024;2023-05-07T07:45:11;2.20;;;2.20;;
4011;SDS011;2020;48.682;9.024;2023-05-07T07:47:37;2.23;;;2.23;;
4011;SDS011;2020;48.682;9.024;2023-05-07T07:50:02;2.60;;;2.40;;
4011;SDS011;2020;48.682;9.024;2023-05-07T07:52:28;1.87;;;1.87;;
4011;SDS011;2020;48.682;9.024;2023-05-07T07:54:53;2.07;;;1.97;;
4011;SDS011;2020;48.682;9.024;2023-05-07T07:57:18;2.50;;;2.40;;
4011;SDS011;2020;48.682;9.024;2023-05-07T07:59:44;2.37;;;2.20;;
4011;SDS011;2020;48.682;9.024;2023-05-07T08:02:09;2.13;;;2.07;;
4011;SDS011;2020;48.682;9.024;2023-05-07T08:04:34;1.90;;;1.90;;
4011;SDS011;2020;48.682;9.024;2023-05-07T08:07:00;1.80;;;1.80;;
4011;SDS011;2020;48.682;9.024;2023-05-07T08:09:25;2.50;;;2.40;;
4011;SDS011;2020;48.682;9.024;2023-05-07T08:11:51;1.80;;;1.80;;
4011;SDS011;2020;48.682;9.024;2023-05-07T08:14:16;2.97;;;1.70;;
4011;SDS011;2020;48.682;9.024;2023-05-07T08:16:42;1.60;;;1.60;;
4011;SDS011;2020;48.682;9.024;2023-05-07T08:19:07;2.20;;;2.10;;
4011;SDS011;2020;48.682;9.024;2023-05-07T08:21:32;2.07;;;1.97;;
4011;SDS011;2020;48.682;9.024;2023-05-07T08:23:59;1.70;;;1.70;;
4011;SDS011;2020;48.682;9.024;2023-05-07T08:26:24;1.80;;;1.80;;
4011;SDS011;2020;48.682;9.024;2023-05-07T08:28:49;2.30;;;2.00;;
4011;SDS011;2020;48.682;9.024;2023-05-07T08:31:14;1.80;;;1.80;;
4011;SDS011;2020;48.682;9.024;2023-05-07T08:33:40;1.50;;;1.50;;
4011;SDS011;2020;48.682;9.024;2023-05-07T08:36:05;1.77;;;1.77;;
4011;SDS011;2020;48.682;9.024;2023-05-07T08:38:31;1.77;;;1.77;;
4011;SDS011;2020;48.682;9.024;2023-05-07T08:40:56;1.60;;;1.60;;
4011;SDS011;2020;48.682;9.024;2023-05-07T08:43:21;1.10;;;1.10;;
4011;SDS011;2020;48.682;9.024;2023-05-07T08:45:51;1.43;;;1.43;;
4011;SDS011;2020;48.682;9.024;2023-05-07T08:48:19;1.57;;;1.53;;
4011;SDS011;2020;48.682;9.024;2023-05-07T08:50:47;1.53;;;1.53;;
4011;SDS011;2020;48.682;9.024;2023-05-07T08:53:12;2.33;;;2.03;;
4011;SDS011;2020;48.682;9.024;2023-05-07T08:55:39;1.10;;;1.10;;
4011;SDS011;2020;48.682;9.024;2023-05-07T08:58:04;1.70;;;1.70;;
4011;SDS011;2020;48.682;9.024;2023-05-07T09:00:30;1.20;;;1.17;;
4011;SDS011;2020;48.682;9.024;2023-05-07T09:02:55;1.63;;;1.13;;
4011;SDS011;2020;48.682;9.024;2023-05-07T09:05:20;1.13;;;1.13;;
4011;SDS011;2020;48.682;9.024;2023-05-07T09:07:46;1.90;;;1.90;;
4011;SDS011;2020;48.682;9.024;2023-05-07T09:10:12;1.80;;;1.80;;
4011;SDS011;2020;48.682;9.024;2023-05-07T09:12:38;1.73;;;1.73;;
4011;SDS011;2020;48.682;9.024;2023-05-07T09:15:05;2.00;;;2.00;;
4011;SDS011;2020;48.682;9.024;2023-05-07T09:17:32;1.30;;;1.20;;
4011;SDS011;2020;48.682;9.024;2023-05-07T09:20:04;1.77;;;1.77;;
4011;SDS011;2020;48.682;9.024;2023-05-07T09:22:34;1.67;;;1.63;;
4011;SDS011;2020;48.682;9.024;2023-05-07T09:25:01;1.53;;;1.53;;
4011;SDS011;2020;48.682;9.024;2023-05-07T09:27:26;1.20;;;1.20;;
4011;SDS011;2020;48.682;9.024;2023-05-07T09:29:51;1.70;;;1.70;;
4011;SDS011;2020;48.682;9.024;2023-05-07T09:32:17;1.70;;;1.70;;
4011;SDS011;2020;48.682;9.024;2023-05-07T09:34:42;1.87;;;1.87;;
4011;SDS011;2020;48.682;9.024;2023-05-07T09:37:07;1.70;;;1.67;;
4011;SDS011;2020;48.682;9.024;2023-05-07T09:39:46;1.80;;;1.70;;
4011;SDS011;2020;48.682;9.024;2023-05-07T09:42:13;1.80;;;1.80;;
4011;SDS011;2020;48.682;9.024;2023-05-07T09:44:41;1.80;;;1.80;;
4011;SDS011;2020;48.682;9.024;2023-05-07T09:47:08;1.60;;;1.50;;
4011;SDS011;2020;48.682;9.024;2023-05-07T09:49:35;1.83;;;1.83;;
4011;SDS011;2020;48.682;9.024;2023-05-07T09:52:03;2.33;;;2.23;;
4011;SDS011;2020;48.682;9.024;2023-05-07T09:54:31;1.67;;;1.67;;
4011;SDS011;2020;48.682;9.024;2023-05-07T09:56:58;1.50;;;1.50;;
4011;SDS011;2020;48.682;9.024;2023-05-07T09:59:24;1.80;;;1.80;;
4011;SDS011;2020;48.682;9.024;2023-05-07T10:01:50;2.30;;;2.30;;
4011;SDS011;2020;48.682;9.024;2023-05-07T10:04:17;1.77;;;1.70;;
4011;SDS011;2020;48.682;9.024;2023-05-07T10:06:43;2.50;;;2.30;;
4011;SDS011;2020;48.682;9.024;2023-05-07T10:09:09;2.20;;;2.10;;
4011;SDS011;2020;48.682;9.024;2023-05-07T10:11:36;1.60;;;1.60;;
4011;SDS011;2020;48.682;9.024;2023-05-07T10:14:02;1.80;;;1.80;;
4011;SDS011;2020;48.682;9.024;2023-05-07T10:16:34;1.93;;;1.70;;
4011;SDS011;2020;48.682;9.024;2023-05-07T10:19:04;1.87;;;1.77;;
4011;SDS011;2020;48.682;9.024;2023-05-07T10:21:31;2.10;;;2.00;;
4011;SDS011;2020;48.682;9.024;2023-05-07T10:24:10;1.73;;;1.73;;
4011;SDS011;2020;48.682;9.024;2023-05-07T10:26:45;2.37;;;1.80;;
4011;SDS011;2020;48.682;9.024;2023-05-07T10:29:15;2.00;;;1.90;;
4011;SDS011;2020;48.682;9.024;2023-05-07T10:32:14;2.07;;;2.07;;
4011;SDS011;2020;48.682;9.024;2023-05-07T10:34:54;1.70;;;1.70;;
4011;SDS011;2020;48.682;9.024;2023-05-07T10:37:23;2.03;;;2.03;;
4011;SDS011;2020;48.682;9.024;2023-05-07T10:39:49;1.80;;;1.80;;
4011;SDS011;2020;48.682;9.024;2023-05-07T10:42:16;1.77;;;1.77;;
4011;SDS011;2020;48.682;9.024;2023-05-07T10:44:41;1.50;;;1.50;;
4011;SDS011;2020;48.682;9.024;2023-05-07T10:47:10;1.80;;;1.70;;
4011;SDS011;2020;48.682;9.024;2023-05-07T10:52:12;2.07;;;1.87;;
4011;SDS011;2020;48.682;9.024;2023-05-07T10:54:40;1.50;;;1.50;;
4011;SDS011;2020;48.682;9.024;2023-05-07T10:59:53;1.17;;;1.17;;
4011;SDS011;2020;48.682;9.024;2023-05-07T11:02:18;1.73;;;1.70;;
4011;SDS011;2020;48.682;9.024;2023-05-07T11:04:45;1.97;;;1.43;;
4011;SDS011;2020;48.682;9.024;2023-05-07T11:07:30;1.53;;;1.53;;
4011;SDS011;2020;48.682;9.024;2023-05-07T11:09:56;1.77;;;1.77;;
4011;SDS011;2020;48.682;9.024;2023-05-07T11:15:00;1.53;;;1.53;;
4011;SDS011;2020;48.682;9.024;2023-05-07T11:17:26;1.83;;;1.60;;
4011;SDS011;2020;48.682;9.024;2023-05-07T11:19:55;1.47;;;1.47;;
4011;SDS011;2020;48.682;9.024;2023-05-07T11:24:55;1.77;;;1.77;;
4011;SDS011;2020;48.682;9.024;2023-05-07T11:27:23;2.17;;;1.93;;
4011;SDS011;2020;48.682;9.024;2023-05-07T11:29:50;1.53;;;1.53;;
4011;SDS011;2020;48.682;9.024;2023-05-07T11:32:15;1.60;;;1.60;;
4011;SDS011;2020;48.682;9.024;2023-05-07T11:34:47;2.77;;;2.67;;
4011;SDS011;2020;48.682;9.024;2023-05-07T11:37:16;1.50;;;1.40;;
4011;SDS011;2020;48.682;9.024;2023-05-07T11:39:42;1.67;;;1.57;;
4011;SDS011;2020;48.682;9.024;2023-05-07T11:42:11;2.17;;;2.17;;
4011;SDS011;2020;48.682;9.024;2023-05-07T11:44:50;1.43;;;1.43;;
4011;SDS011;2020;48.682;9.024;2023-05-07T11:47:19;1.83;;;1.83;;
4011;SDS011;2020;48.682;9.024;2023-05-07T11:49:48;1.70;;;1.60;;
4011;SDS011;2020;48.682;9.024;2023-05-07T11:52:15;1.30;;;1.30;;
4011;SDS011;2020;48.682;9.024;2023-05-07T11:54:48;1.43;;;1.43;;
4011;SDS011;2020;48.682;9.024;2023-05-07T11:57:14;1.70;;;1.70;;
4011;SDS011;2020;48.682;9.024;2023-05-07T11:59:40;1.90;;;1.90;;
4011;SDS011;2020;48.682;9.024;2023-05-07T12:02:06;1.63;;;1.63;;
4011;SDS011;2020;48.682;9.024;2023-05-07T12:04:32;1.53;;;1.53;;
4011;SDS011;2020;48.682;9.024;2023-05-07T12:06:57;2.25;;;2.25;;
4011;SDS011;2020;48.682;9.024;2023-05-07T12:09:23;1.07;;;0.90;;
4011;SDS011;2020;48.682;9.024;2023-05-07T12:11:48;0.77;;;0.77;;
4011;SDS011;2020;48.682;9.024;2023-05-07T12:14:13;0.70;;;0.70;;
4011;SDS011;2020;48.682;9.024;2023-05-07T12:16:40;0.77;;;0.77;;
4011;SDS011;2020;48.682;9.024;2023-05-07T12:19:06;0.60;;;0.60;;
4011;SDS011;2020;48.682;9.024;2023-05-07T12:21:33;0.87;;;0.70;;
4011;SDS011;2020;48.682;9.024;2023-05-07T12:23:59;0.80;;;0.80;;
4011;SDS011;2020;48.682;9.024;2023-05-07T12:26:25;0.70;;;0.70;;
4011;SDS011;2020;48.682;9.024;2023-05-07T12:28:50;0.70;;;0.70;;
4011;SDS011;2020;48.682;9.024;2023-05-07T12:31:16;0.87;;;0.87;;
4011;SDS011;2020;48.682;9.024;2023-05-07T12:33:41;0.90;;;0.90;;
4011;SDS011;2020;48.682;9.024;2023-05-07T12:36:07;3.10;;;1.00;;
4011;SDS011;2020;48.682;9.024;2023-05-07T12:38:39;2.20;;;0.90;;
4011;SDS011;2020;48.682;9.024;2023-05-07T12:41:09;1.33;;;1.33;;
4011;SDS011;2020;48.682;9.024;2023-05-07T12:43:35;1.63;;;1.63;;
4011;SDS011;2020;48.682;9.024;2023-05-07T12:46:01;1.20;;;1.20;;
4011;SDS011;2020;48.682;9.024;2023-05-07T12:48:29;2.60;;;2.23;;
4011;SDS011;2020;48.682;9.024;2023-05-07T12:50:55;1.93;;;1.83;;
4011;SDS011;2020;48.682;9.024;2023-05-07T12:53:22;2.20;;;2.00;;
4011;SDS011;2020;48.682;9.024;2023-05-07T12:55:50;2.23;;;2.13;;
4011;SDS011;2020;48.682;9.024;2023-05-07T12:58:17;4.60;;;2.07;;
4011;SDS011;2020;48.682;9.024;2023-05-07T13:00:43;3.20;;;1.77;;
4011;SDS011;2020;48.682;9.024;2023-05-07T13:03:10;1.40;;;1.40;;
4011;SDS011;2020;48.682;9.024;2023-05-07T13:05:35;1.20;;;1.10;;
4011;SDS011;2020;48.682;9.024;2023-05-07T13:08:01;2.23;;;1.60;;
4011;SDS011;2020;48.682;9.024;2023-05-07T13:10:26;2.90;;;1.60;;
4011;SDS011;2020;48.682;9.024;2023-05-07T13:12:52;2.23;;;1.43;;
4011;SDS011;2020;48.682;9.024;2023-05-07T13:15:17;1.40;;;1.30;;
4011;SDS011;2020;48.682;9.024;2023-05-07T13:17:43;2.57;;;1.60;;
4011;SDS011;2020;48.682;9.024;2023-05-07T13:20:09;2.20;;;2.00;;
4011;SDS011;2020;48.682;9.024;2023-05-07T13:22:36;1.50;;;1.50;;
4011;SDS011;2020;48.682;9.024;2023-05-07T13:25:01;1.93;;;1.83;;
4011;SDS011;2020;48.682;9.024;2023-05-07T13:27:27;1.90;;;1.80;;
4011;SDS011;2020;48.682;9.024;2023-05-07T13:29:52;3.47;;;1.87;;
4011;SDS011;2020;48.682;9.024;2023-05-07T13:32:17;1.70;;;1.70;;
4011;SDS011;2020;48.682;9.024;2023-05-07T13:34:43;1.23;;;1.23;;
4011;SDS011;2020;48.682;9.024;2023-05-07T13:37:08;1.30;;;1.30;;
4011;SDS011;2020;48.682;9.024;2023-05-07T13:39:33;1.43;;;1.43;;
4011;SDS011;2020;48.682;9.024;2023-05-07T13:41:58;1.83;;;1.73;;
4011;SDS011;2020;48.682;9.024;2023-05-07T13:44:24;3.70;;;1.53;;
4011;SDS011;2020;48.682;9.024;2023-05-07T13:46:49;1.77;;;1.70;;
4011;SDS011;2020;48.682;9.024;2023-05-07T13:49:15;1.43;;;1.43;;
4011;SDS011;2020;48.682;9.024;2023-05-07T13:51:40;1.47;;;1.43;;
4011;SDS011;2020;48.682;9.024;2023-05-07T13:54:05;1.77;;;1.67;;
4011;SDS011;2020;48.682;9.024;2023-05-07T13:56:31;2.03;;;1.93;;
4011;SDS011;2020;48.682;9.024;2023-05-07T13:58:57;1.83;;;1.73;;
4011;SDS011;2020;48.682;9.024;2023-05-07T14:01:23;1.63;;;1.63;;
4011;SDS011;2020;48.682;9.024;2023-05-07T14:03:48;4.20;;;2.20;;
4011;SDS011;2020;48.682;9.024;2023-05-07T14:06:13;1.90;;;1.90;;
4011;SDS011;2020;48.682;9.024;2023-05-07T14:08:39;5.90;;;1.73;;
4011;SDS011;2020;48.682;9.024;2023-05-07T14:11:04;2.30;;;2.07;;
4011;SDS011;2020;48.682;9.024;2023-05-07T14:13:30;2.00;;;1.90;;
4011;SDS011;2020;48.682;9.024;2023-05-07T14:15:56;1.77;;;1.67;;
4011;SDS011;2020;48.682;9.024;2023-05-07T14:18:22;2.27;;;2.10;;
4011;SDS011;2020;48.682;9.024;2023-05-07T14:20:47;1.93;;;1.83;;
4011;SDS011;2020;48.682;9.024;2023-05-07T14:23:13;4.23;;;1.60;;
4011;SDS011;2020;48.682;9.024;2023-05-07T14:25:39;1.80;;;1.70;;
4011;SDS011;2020;48.682;9.024;2023-05-07T14:28:04;1.97;;;1.67;;
4011;SDS011;2020;48.682;9.024;2023-05-07T14:30:29;2.40;;;2.10;;
4011;SDS011;2020;48.682;9.024;2023-05-07T14:32:55;1.90;;;1.80;;
4011;SDS011;2020;48.682;9.024;2023-05-07T14:35:20;1.10;;;1.10;;
4011;SDS011;2020;48.682;9.024;2023-05-07T14:37:45;1.40;;;1.30;;
4011;SDS011;2020;48.682;9.024;2023-05-07T14:40:11;4.30;;;2.30;;
4011;SDS011;2020;48.682;9.024;2023-05-07T14:42:36;3.47;;;1.70;;
4011;SDS011;2020;48.682;9.024;2023-05-07T14:45:02;1.60;;;1.50;;
4011;SDS011;2020;48.682;9.024;2023-05-07T14:47:27;1.70;;;1.70;;
4011;SDS011;2020;48.682;9.024;2023-05-07T14:49:53;1.30;;;1.30;;
4011;SDS011;2020;48.682;9.024;2023-05-07T14:52:19;1.30;;;1.30;;
4011;SDS011;2020;48.682;9.024;2023-05-07T14:54:44;1.73;;;1.60;;
4011;SDS011;2020;48.682;9.024;2023-05-07T14:57:10;2.10;;;1.50;;
4011;SDS011;2020;48.682;9.024;2023-05-07T14:59:38;1.63;;;1.63;;
4011;SDS011;2020;48.682;9.024;2023-05-07T15:02:03;1.67;;;1.57;;
4011;SDS011;2020;48.682;9.024;2023-05-07T15:04:30;2.17;;;2.17;;
4011;SDS011;2020;48.682;9.024;2023-05-07T15:06:55;2.50;;;2.30;;
4011;SDS011;2020;48.682;9.024;2023-05-07T15:09:21;1.70;;;1.60;;
4011;SDS011;2020;48.682;9.024;2023-05-07T15:11:46;1.70;;;1.63;;
4011;SDS011;2020;48.682;9.024;2023-05-07T15:14:11;1.70;;;1.60;;
4011;SDS011;2020;48.682;9.024;2023-05-07T15:16:36;1.40;;;1.40;;
4011;SDS011;2020;48.682;9.024;2023-05-07T15:19:02;1.23;;;1.23;;